Time;durP1;ratioP1;P1;durP2;ratioP2;P2;SDS_P1;SDS_P2;PMS_P1;PMS_P2;Temp;Humidity;BMP_temperature;BMP_pressure;BME280_temperature;BME280_humidity;BME280_pressure;Samples;Min_cycle;Max_cycle;Signal;HPM_P1;HPM_P2
2022/11/20 11:24:33;;;;;;;21.67;17.97;;;;;;;13.90;45.36;99879.41;10191615;27;43181;-73
2022/11/20 11:29:26;;;;;;;22.00;17.23;;;;;;;14.73;45.53;99884.81;10176546;27;65614;-66
2022/11/20 11:34:18;;;;;;;15.17;13.37;;;;;;;17.10;43.93;99868.13;10161633;27;65616;-67
2022/11/20 11:39:12;;;;;;;11.73;10.02;;;;;;;17.91;42.72;99871.13;10160600;27;65485;-67
2022/11/20 11:49:26;;;;;;;7.38;6.68;;;;;;;18.90;41.68;99852.50;10170827;27;66708;-69
2022/11/20 11:54:20;;;;;;;7.78;5.78;;;;;;;19.12;41.46;99839.84;10168944;27;66462;-69
2022/11/20 11:59:17;;;;;;;6.00;5.32;;;;;;;19.27;41.65;99840.22;10165354;27;66460;-69
2022/11/20 12:04:14;;;;;;;9.73;5.30;;;;;;;19.38;41.63;99829.75;10151959;27;65489;-69
2022/11/20 12:09:09;;;;;;;5.70;4.90;;;;;;;19.48;41.67;99828.69;10172100;27;66194;-69
2022/11/20 12:14:04;;;;;;;4.82;4.30;;;;;;;19.62;41.61;99832.91;10155313;27;66404;-68
2022/11/20 12:18:57;;;;;;;6.22;4.93;;;;;;;19.69;41.62;99825.00;10181053;27;65857;-69
2022/11/20 12:24:06;;;;;;;8.48;5.10;;;;;;;19.80;41.83;99821.91;10169916;27;66007;-71
2022/11/20 12:29:03;;;;;;;6.28;5.10;;;;;;;19.81;41.79;99815.28;10160814;27;66374;-69
2022/11/20 12:34:01;;;;;;;6.72;4.30;;;;;;;19.92;42.17;99803.66;10140597;27;66886;-72
2022/11/20 12:39:13;;;;;;;5.45;4.13;;;;;;;20.31;41.70;99810.09;10134997;28;66485;-70
2022/11/20 12:49:26;;;;;;;4.00;3.55;;;;;;;20.71;41.18;99817.03;10140521;28;67207;-69
2022/11/20 12:54:37;;;;;;;5.47;4.28;;;;;;;20.73;41.11;99814.75;10138502;28;66292;-72
2022/11/20 12:59:50;;;;;;;19.67;16.67;;;;;;;17.63;40.45;99815.56;10140993;28;66308;-70
2022/11/20 13:04:57;;;;;;;12.85;11.55;;;;;;;19.61;39.36;99802.97;10131558;28;65542;-72
2022/11/20 13:09:50;;;;;;;11.55;8.43;;;;;;;20.09;38.97;99794.56;10126067;28;66440;-69
2022/11/20 13:14:43;;;;;;;12.13;7.40;;;;;;;20.30;39.02;99791.97;10134690;28;66274;-69
2022/11/20 13:19:35;;;;;;;8.43;6.60;;;;;;;20.43;39.08;99786.31;10128623;28;66444;-69
2022/11/20 13:24:30;;;;;;;6.93;5.90;;;;;;;20.30;39.70;99778.22;10128735;27;66321;-69
2022/11/20 13:29:22;;;;;;;7.03;5.07;;;;;;;20.25;39.97;99762.66;10137843;28;66219;-68
2022/11/20 13:34:23;;;;;;;8.30;5.13;;;;;;;20.29;40.25;99766.41;10138780;28;65600;-69
2022/11/20 13:39:25;;;;;;;5.22;4.72;;;;;;;20.01;41.00;99759.59;10135471;28;66372;-69
2022/11/20 13:44:29;;;;;;;7.40;4.75;;;;;;;19.98;41.16;99758.34;10133081;28;66370;-68
2022/11/20 13:49:25;;;;;;;9.20;6.00;;;;;;;20.00;41.51;99752.50;10141507;27;65416;-69
2022/11/20 13:54:28;;;;;;;12.25;6.78;;;;;;;19.95;42.00;99741.66;10138854;27;66309;-68
2022/11/20 13:59:31;;;;;;;10.45;6.50;;;;;;;19.97;42.45;99739.41;10124539;27;66251;-70
2022/11/20 14:04:27;;;;;;;15.18;10.50;;;;;;;20.00;42.82;99742.31;10126609;28;66231;-70
2022/11/20 14:09:26;;;;;;;19.15;11.05;;;;;;;20.04;43.48;99746.03;10138851;27;66446;-69
2022/11/20 14:14:20;;;;;;;15.93;10.25;;;;;;;20.04;44.00;99740.53;10144442;28;66384;-70
2022/11/20 14:19:26;;;;;;;16.08;10.40;;;;;;;20.07;44.41;99739.88;10141882;28;65591;-70
2022/11/20 14:24:19;;;;;;;16.30;10.95;;;;;;;20.07;44.68;99737.13;10115485;28;66976;-69
2022/11/20 14:29:12;;;;;;;15.90;9.90;;;;;;;20.08;44.82;99724.19;10140072;28;65682;-69
2022/11/20 14:34:04;;;;;;;13.05;9.73;;;;;;;20.07;45.02;99717.06;10136736;27;66146;-70
2022/11/20 14:38:58;;;;;;;15.45;9.82;;;;;;;20.08;44.97;99705.69;10129774;28;65478;-68
2022/11/20 14:43:52;;;;;;;15.90;9.43;;;;;;;20.10;44.95;99697.13;10135015;27;65579;-70
2022/11/20 14:48:46;;;;;;;14.20;9.35;;;;;;;20.09;45.12;99695.50;10136788;28;66422;-69
2022/11/20 14:53:38;;;;;;;11.90;8.27;;;;;;;20.09;45.27;99701.81;10136668;27;65599;-69
2022/11/20 14:58:33;;;;;;;12.10;8.73;;;;;;;20.11;45.30;99696.00;10142014;28;66158;-69
2022/11/20 15:03:31;;;;;;;15.30;8.95;;;;;;;20.12;45.40;99681.09;10135531;28;65595;-69
2022/11/20 15:08:23;;;;;;;13.30;8.15;;;;;;;20.07;45.51;99656.50;10130203;28;66494;-70
2022/11/20 15:13:17;;;;;;;11.02;8.80;;;;;;;20.07;45.72;99665.59;10124126;28;65474;-70
2022/11/20 15:18:12;;;;;;;10.80;8.07;;;;;;;20.22;45.87;99666.19;10131501;28;65606;-71
2022/11/20 15:23:09;;;;;;;15.68;8.95;;;;;;;20.36;45.70;99661.31;10131523;28;65622;-72
2022/11/20 15:28:01;;;;;;;15.23;8.38;;;;;;;20.48;45.44;99662.22;10115034;28;66060;-72
2022/11/20 15:32:54;;;;;;;22.88;9.15;;;;;;;20.59;45.14;99653.59;10121516;28;65492;-72
2022/11/20 15:37:47;;;;;;;16.38;9.25;;;;;;;20.66;44.87;99654.69;10124449;28;65469;-70
2022/11/20 15:43:02;;;;;;;24.48;8.80;;;;;;;20.73;44.67;99646.72;10128148;28;65652;-73
2022/11/20 15:47:51;;;;;;;18.40;8.32;;;;;;;20.73;44.52;99643.16;10132760;27;67041;-72
2022/11/20 15:52:43;;;;;;;18.05;9.30;;;;;;;20.78;44.34;99637.44;10113754;27;65526;-71
2022/11/20 15:57:36;;;;;;;15.40;8.48;;;;;;;20.83;44.44;99635.28;10121950;28;65642;-70
2022/11/20 16:02:28;;;;;;;17.00;8.52;;;;;;;20.83;44.50;99623.47;10125280;28;66530;-71
2022/11/20 16:07:20;;;;;;;22.92;8.75;;;;;;;20.90;44.50;99623.72;10109671;27;66293;-71
2022/11/20 16:15:44;;;;;;;16.63;8.07;;;;;;;20.84;44.80;99619.56;10126501;28;65777;-73
2022/11/20 16:17:42;;;;;;;18.83;7.97;;;;;;;20.85;45.04;99599.94;10124714;28;66729;-72
2022/11/20 16:22:34;;;;;;;16.35;7.65;;;;;;;20.93;44.86;99599.09;10125100;28;66236;-73
2022/11/20 16:27:26;;;;;;;15.60;8.35;;;;;;;20.91;45.15;99592.28;10132826;27;66423;-75
2022/11/20 16:32:18;;;;;;;71.38;33.28;;;;;;;21.01;45.17;99588.31;10134257;28;66369;-74
2022/11/20 16:37:11;;;;;;;26.00;13.05;;;;;;;21.07;44.90;99581.47;10135875;28;65521;-71
2022/11/20 16:42:04;;;;;;;24.10;10.80;;;;;;;21.07;44.77;99571.25;10143486;27;66583;-70
2022/11/20 16:46:56;;;;;;;26.52;10.40;;;;;;;20.72;45.19;99556.13;10146358;27;65592;-70
2022/11/20 16:51:48;;;;;;;17.65;9.60;;;;;;;20.72;44.75;99556.13;10143888;28;66303;-72
2022/11/20 16:56:41;;;;;;;18.52;8.82;;;;;;;20.73;44.69;99555.81;10146984;27;65502;-71
2022/11/20 17:01:37;;;;;;;13.88;8.13;;;;;;;20.76;44.71;99540.53;10148096;27;66562;-71
2022/11/20 17:06:30;;;;;;;15.02;7.65;;;;;;;20.72;44.89;99547.88;10138060;28;66285;-71
2022/11/20 17:11:22;;;;;;;12.77;8.00;;;;;;;20.73;44.84;99555.81;10142843;28;66559;-70
2022/11/20 17:16:16;;;;;;;13.18;7.53;;;;;;;20.72;45.00;99559.69;10144671;28;66434;-71
2022/11/20 17:21:08;;;;;;;13.32;8.13;;;;;;;20.72;45.13;99567.16;10143970;28;66096;-70
2022/11/20 17:26:03;;;;;;;11.82;7.30;;;;;;;20.73;45.25;99558.56;10138488;27;66356;-70
2022/11/20 17:30:59;;;;;;;17.60;7.32;;;;;;;20.71;45.29;99536.03;10146311;27;65474;-70
2022/11/20 17:35:52;;;;;;;13.70;7.30;;;;;;;20.73;45.20;99524.69;10140990;28;65719;-70
2022/11/20 17:40:45;;;;;;;14.57;7.38;;;;;;;20.71;45.43;99507.69;10144766;27;65674;-70
2022/11/20 17:45:37;;;;;;;13.82;6.90;;;;;;;20.71;45.33;99508.50;10144392;28;66343;-70
2022/11/20 17:50:29;;;;;;;11.60;7.25;;;;;;;20.67;45.54;99499.31;10146634;28;66121;-70
2022/11/20 17:55:22;;;;;;;11.65;7.28;;;;;;;20.68;45.47;99494.56;10146200;28;65606;-70
2022/11/20 18:00:16;;;;;;;10.90;9.27;;;;;;;17.35;43.83;99480.47;10133446;28;66101;-71
2022/11/20 18:05:08;;;;;;;10.50;9.40;;;;;;;16.34;45.43;99471.94;10133419;28;65843;-72
2022/11/20 18:10:01;;;;;;;6.67;5.97;;;;;;;18.16;45.72;99470.78;10147377;28;66348;-75
2022/11/20 18:14:54;;;;;;;6.88;5.15;;;;;;;18.82;44.77;99460.53;10138083;27;66387;-73
2022/11/20 18:19:47;;;;;;;5.68;4.43;;;;;;;19.14;44.59;99455.63;10133721;27;66743;-77
2022/11/20 18:24:39;;;;;;;7.63;3.67;;;;;;;19.38;44.49;99451.22;10143357;27;65564;-74
2022/11/20 18:29:31;;;;;;;5.40;4.05;;;;;;;19.42;44.49;99439.53;10147351;27;66863;-75
2022/11/20 18:34:25;;;;;;;4.13;3.35;;;;;;;19.49;44.80;99429.69;10122681;27;65277;-80
2022/11/20 18:39:17;;;;;;;6.13;3.80;;;;;;;19.60;45.00;99422.69;10136359;28;65433;-75
2022/11/20 18:49:22;;;;;;;5.45;3.50;;;;;;;19.94;44.89;99402.44;10138443;28;66694;-74
2022/11/20 18:54:16;;;;;;;5.70;3.50;;;;;;;20.03;44.78;99392.19;10141641;27;65770;-79
2022/11/20 18:59:09;;;;;;;5.47;3.15;;;;;;;20.15;44.74;99386.75;10135826;27;65478;-77
2022/11/20 19:04:01;;;;;;;5.47;3.85;;;;;;;20.24;44.59;99381.19;10142255;28;65488;-76
2022/11/20 19:08:53;;;;;;;3.85;2.95;;;;;;;20.35;44.38;99371.44;10127209;27;66107;-74
2022/11/20 19:13:47;;;;;;;4.50;3.25;;;;;;;20.36;44.41;99364.78;10134440;27;66595;-77
2022/11/20 19:18:39;;;;;;;3.60;3.20;;;;;;;20.48;44.34;99361.25;10138331;28;66569;-77
2022/11/20 19:23:31;;;;;;;5.28;3.40;;;;;;;20.45;44.30;99362.75;10140190;28;65581;-76
2022/11/20 19:28:23;;;;;;;3.55;3.15;;;;;;;20.50;44.16;99353.47;10136296;27;65338;-76
2022/11/20 19:33:17;;;;;;;4.53;3.38;;;;;;;20.50;44.22;99362.56;10143941;27;66114;-75
2022/11/20 19:38:09;;;;;;;3.03;2.72;;;;;;;20.56;44.19;99349.38;10122434;28;66313;-78
2022/11/20 19:43:01;;;;;;;3.55;3.25;;;;;;;20.60;44.26;99349.50;10139929;28;65256;-79
2022/11/20 19:47:53;;;;;;;4.70;2.67;;;;;;;20.61;44.45;99337.31;10134968;28;66442;-78
2022/11/20 19:52:46;;;;;;;3.60;2.97;;;;;;;20.65;44.51;99335.50;10140408;28;65304;-76
2022/11/20 19:57:38;;;;;;;3.08;2.78;;;;;;;20.65;44.57;99316.25;10136510;27;65759;-78
2022/11/20 20:02:31;;;;;;;3.75;2.67;;;;;;;20.71;44.45;99321.19;10138816;28;66477;-80
2022/11/20 20:07:23;;;;;;;3.17;2.65;;;;;;;20.73;44.36;99313.41;10138424;28;66578;-75
2022/11/20 20:12:16;;;;;;;3.10;2.80;;;;;;;20.76;44.61;99306.38;10138885;28;66143;-77
2022/11/20 20:17:08;;;;;;;3.92;2.55;;;;;;;20.81;44.54;99303.44;10137773;28;66324;-79
2022/11/20 20:22:00;;;;;;;2.65;2.42;;;;;;;20.80;44.65;99302.63;10149801;27;66137;-77
2022/11/20 20:26:52;;;;;;;3.00;2.50;;;;;;;20.85;44.61;99287.81;10146528;27;66564;-77
2022/11/20 20:31:46;;;;;;;2.78;2.45;;;;;;;20.90;44.51;99290.34;10141660;27;65593;-78
2022/11/20 20:36:38;;;;;;;2.53;2.33;;;;;;;20.88;44.59;99276.13;10138903;27;65581;-82
2022/11/20 20:41:30;;;;;;;2.72;2.28;;;;;;;20.87;44.52;99277.25;10143485;27;65509;-76
2022/11/20 20:46:22;;;;;;;2.97;2.35;;;;;;;20.85;44.72;99276.78;10148011;27;66137;-78
2022/11/20 20:51:16;;;;;;;2.47;2.28;;;;;;;20.86;44.63;99279.22;10143676;28;65618;-74
2022/11/20 20:56:08;;;;;;;4.93;2.42;;;;;;;20.88;44.57;99284.38;10144710;27;66194;-75
2022/11/20 21:01:01;;;;;;;3.03;2.45;;;;;;;20.88;44.71;99274.16;10145378;27;65604;-75
2022/11/20 21:05:55;;;;;;;4.57;2.28;;;;;;;20.88;44.71;99276.13;10152386;27;66456;-76
2022/11/20 21:10:49;;;;;;;6.40;2.40;;;;;;;20.93;44.62;99276.69;10139580;28;66373;-75
2022/11/20 21:15:41;;;;;;;2.80;2.28;;;;;;;21.00;44.65;99289.91;10148459;27;65953;-75
2022/11/20 21:25:43;;;;;;;3.22;2.28;;;;;;;;;;10141901;28;67224;-76
2022/11/20 21:30:36;;;;;;;5.70;2.28;;;;;;;20.96;44.97;99263.38;10143107;27;66414;-76
2022/11/20 21:35:28;;;;;;;3.75;2.00;;;;;;;20.99;44.95;99260.72;10140888;27;66915;-75
2022/11/20 21:40:20;;;;;;;3.55;2.20;;;;;;;20.95;45.12;99264.53;10142499;28;66665;-73
